TJSJ/SJU METAR and TAF weather

Enter ICAO airport designator
Station Type Date Time Source
TJSJ METAR 2020/09/27 16:56 UTC NOAA

TJSJ 271656Z 06013KT 10SM SCT025 SCT085 32/25 A2989 RMK AO2 SLP120 VCSH SW T03170250


Station Type Date Time Source
TJSJ Decoded METAR 2020/09/27 16:56 UTC NOAA

San Juan, Luis Munoz Marin International Airport, PR, United States (TJSJ) 18-27N 066-00W
Sep 27, 2020 - 12:56 PM EDT / 2020.09.27 1656 UTC
Wind: from the ENE (060 degrees) at 15 MPH (13 KT):0
Visibility: 10 mile(s):0
Sky conditions: partly cloudy
Temperature: 89.1 F (31.7 C)
Heat index: 101.5 F (38.6 C):1
Dew Point: 77.0 F (25.0 C)
Relative Humidity: 67%
Pressure (altimeter): 29.89 in. Hg (1012 hPa)
ob: TJSJ 271656Z 06013KT 10SM SCT025 SCT085 32/25 A2989 RMK AO2 SLP120 VCSH SW T03170250
cycle: 17

Station Type Date Time Source
TJSJ TAF 2020/09/27 15:57 UTC NOAA

TAF TJSJ 271452Z 2715/2812 05012KT P6SM VCSH SCT025 SCT050
FM272230 08007KT P6SM FEW035 SCT060
FM280600 10003KT P6SM VCSH SCT025 BKN050
TEMPO 2806/2810 VRB12KT 4SM SHRA BKN025 OVC050

Example: see airport list